Time;durP1;ratioP1;P1;durP2;ratioP2;P2;SDS_P1;SDS_P2;PMS_P1;PMS_P2;Temp;Humidity;BMP_temperature;BMP_pressure;BME280_temperature;BME280_humidity;BME280_pressure;Samples;Min_cycle;Max_cycle;Signal;HPM_P1;HPM_P2
2021/08/02 00:01:00;;;;;;;3.80;2.43;;;;;;;;;;5053681;28;20414;-69
2021/08/02 00:03:29;;;;;;;3.93;2.57;;;;;;;;;;5053883;28;20514;-68
2021/08/02 00:05:57;;;;;;;6.07;2.80;;;;;;;;;;5053738;28;20416;-69
2021/08/02 00:08:24;;;;;;;3.20;3.00;;;;;;;;;;5053394;28;20407;-69
2021/08/02 00:10:50;;;;;;;3.73;2.03;;;;;;;;;;5053583;28;20430;-69
2021/08/02 00:13:21;;;;;;;3.13;1.80;;;;;;;;;;5053908;28;20411;-69
2021/08/02 00:15:47;;;;;;;2.17;1.97;;;;;;;;;;5053441;28;20901;-69
2021/08/02 00:18:13;;;;;;;2.63;2.43;;;;;;;;;;5053236;28;20565;-69
2021/08/02 00:20:39;;;;;;;6.80;2.30;;;;;;;;;;5053381;28;20411;-70
2021/08/02 00:23:07;;;;;;;6.50;2.87;;;;;;;;;;5053514;28;20469;-69
2021/08/02 00:25:33;;;;;;;4.03;2.47;;;;;;;;;;5051788;28;20460;-69
2021/08/02 00:28:01;;;;;;;4.20;2.80;;;;;;;;;;5053411;28;20417;-69
2021/08/02 00:30:27;;;;;;;3.10;2.27;;;;;;;;;;5053347;28;20849;-69
2021/08/02 00:32:53;;;;;;;3.10;2.73;;;;;;;;;;5053170;28;20415;-69
2021/08/02 00:35:20;;;;;;;2.63;2.43;;;;;;;;;;5053005;28;20565;-69
2021/08/02 00:38:04;;;;;;;2.20;1.97;;;;;;;;;;5052960;28;20490;-69
2021/08/02 00:40:48;;;;;;;3.67;2.17;;;;;;;;;;5053260;28;20422;-69
2021/08/02 00:43:23;;;;;;;2.83;2.50;;;;;;;;;;5053055;28;20537;-69
2021/08/02 00:45:51;;;;;;;3.30;2.80;;;;;;;;;;5053020;28;20974;-69
2021/08/02 00:48:17;;;;;;;3.90;2.87;;;;;;;;;;5052733;28;20411;-69
2021/08/02 00:50:45;;;;;;;2.10;1.97;;;;;;;;;;5053123;28;20422;-69
2021/08/02 00:53:22;;;;;;;4.10;3.80;;;;;;;;;;5053182;28;20501;-69
2021/08/02 00:55:49;;;;;;;3.27;2.30;;;;;;;;;;5053107;28;20411;-69
2021/08/02 00:58:17;;;;;;;5.93;2.23;;;;;;;;;;5053215;28;20474;-69
2021/08/02 01:00:43;;;;;;;2.90;1.97;;;;;;;;;;5052661;28;20403;-69
2021/08/02 01:03:10;;;;;;;3.53;2.43;;;;;;;;;;5053300;28;20407;-69
2021/08/02 01:05:38;;;;;;;3.20;1.90;;;;;;;;;;5052747;28;20870;-69
2021/08/02 01:08:05;;;;;;;3.77;2.40;;;;;;;;;;5052517;28;20442;-69
2021/08/02 01:10:32;;;;;;;2.70;2.33;;;;;;;;;;5052191;28;20886;-69
2021/08/02 01:13:01;;;;;;;3.53;2.30;;;;;;;;;;5052606;28;20522;-69
2021/08/02 01:15:27;;;;;;;3.83;2.53;;;;;;;;;;5052734;28;20411;-69
2021/08/02 01:17:55;;;;;;;2.70;2.27;;;;;;;;;;5052369;28;20622;-69
2021/08/02 01:23:25;;;;;;;2.13;1.63;;;;;;;;;;5052595;28;20418;-69
2021/08/02 01:25:55;;;;;;;2.63;2.23;;;;;;;;;;5052194;28;20422;-69
2021/08/02 01:28:21;;;;;;;5.60;2.50;;;;;;;;;;5051117;28;20441;-69
2021/08/02 01:30:57;;;;;;;5.50;2.40;;;;;;;;;;5052691;28;20769;-69
2021/08/02 01:33:30;;;;;;;4.30;2.03;;;;;;;;;;5052601;28;20414;-68
2021/08/02 01:35:57;;;;;;;7.70;3.70;;;;;;;;;;5052337;28;20482;-69
2021/08/02 01:38:24;;;;;;;3.97;2.50;;;;;;;;;;5052300;28;20488;-69
2021/08/02 01:40:50;;;;;;;2.63;2.43;;;;;;;;;;5052387;28;20480;-69
2021/08/02 01:43:16;;;;;;;7.60;1.90;;;;;;;;;;5052537;28;20411;-69
2021/08/02 01:45:45;;;;;;;3.37;2.47;;;;;;;;;;5052528;28;20882;-69
2021/08/02 01:48:23;;;;;;;4.13;2.40;;;;;;;;;;5052396;28;20439;-69
2021/08/02 01:54:11;;;;;;;2.63;2.00;;;;;;;;;;5051941;28;20448;-69
2021/08/02 01:56:48;;;;;;;2.10;1.90;;;;;;;;;;5052258;28;20415;-69
2021/08/02 01:59:16;;;;;;;3.80;2.77;;;;;;;;;;5052546;28;20474;-69
2021/08/02 02:01:46;;;;;;;2.40;2.20;;;;;;;;;;5056221;28;20484;-69
2021/08/02 02:04:12;;;;;;;3.17;1.90;;;;;;;;;;5055922;28;20463;-69
2021/08/02 02:06:40;;;;;;;3.43;2.50;;;;;;;;;;5056084;28;20415;-69
2021/08/02 02:09:11;;;;;;;3.60;2.53;;;;;;;;;;5056108;28;20407;-69
2021/08/02 02:11:57;;;;;;;2.60;2.20;;;;;;;;;;5055780;28;20813;-70
2021/08/02 02:14:25;;;;;;;2.23;2.03;;;;;;;;;;5055726;28;20773;-69
2021/08/02 02:16:52;;;;;;;4.00;2.30;;;;;;;;;;5055969;28;20862;-69
2021/08/02 02:19:22;;;;;;;2.67;2.10;;;;;;;;;;5055424;28;20813;-69
2021/08/02 02:21:49;;;;;;;4.50;2.10;;;;;;;;;;5055519;28;20422;-69
2021/08/02 02:24:16;;;;;;;4.33;2.43;;;;;;;;;;5055464;28;20414;-69
2021/08/02 02:26:43;;;;;;;2.57;2.37;;;;;;;;;;5055786;28;20502;-69
2021/08/02 02:29:12;;;;;;;2.30;2.10;;;;;;;;;;5055434;28;20411;-68
2021/08/02 02:31:40;;;;;;;4.90;2.33;;;;;;;;;;5055658;28;20415;-69
2021/08/02 02:34:07;;;;;;;4.60;2.37;;;;;;;;;;5053971;28;20462;-70
2021/08/02 02:36:33;;;;;;;3.40;2.30;;;;;;;;;;5053916;28;20518;-68
2021/08/02 02:38:59;;;;;;;2.67;2.00;;;;;;;;;;5054860;28;20561;-69
2021/08/02 02:41:26;;;;;;;3.17;2.27;;;;;;;;;;5055127;28;20407;-69
2021/08/02 02:43:52;;;;;;;6.50;2.57;;;;;;;;;;5054706;28;20423;-69
2021/08/02 02:46:19;;;;;;;3.43;2.20;;;;;;;;;;5055298;28;20415;-69
2021/08/02 02:48:45;;;;;;;3.30;2.60;;;;;;;;;;5055340;28;20438;-70
2021/08/02 02:51:11;;;;;;;2.70;2.17;;;;;;;;;;5053400;28;20403;-69
2021/08/02 02:53:39;;;;;;;2.60;2.17;;;;;;;;;;5053946;28;21000;-70
2021/08/02 02:56:08;;;;;;;4.53;2.47;;;;;;;;;;5054048;28;20411;-69
2021/08/02 02:58:34;;;;;;;2.90;2.20;;;;;;;;;;5052672;28;20517;-69
2021/08/02 03:01:01;;;;;;;3.40;2.40;;;;;;;;;;5054112;28;20415;-69
2021/08/02 03:03:27;;;;;;;3.67;2.27;;;;;;;;;;5054201;28;20906;-70
2021/08/02 03:08:57;;;;;;;2.70;2.27;;;;;;;;;;5053789;28;20449;-69
2021/08/02 03:11:23;;;;;;;1.83;1.73;;;;;;;;;;5052928;28;20415;-69
2021/08/02 03:13:50;;;;;;;2.37;2.17;;;;;;;;;;5053927;28;20404;-69
2021/08/02 03:16:17;;;;;;;5.07;2.30;;;;;;;;;;5053988;28;20419;-68
2021/08/02 03:18:43;;;;;;;4.57;2.60;;;;;;;;;;5053758;28;20519;-69
2021/08/02 03:24:15;;;;;;;2.60;2.40;;;;;;;;;;5053259;28;20510;-69
2021/08/02 03:26:58;;;;;;;3.00;1.90;;;;;;;;;;5052852;28;20849;-70
2021/08/02 03:29:30;;;;;;;4.37;2.60;;;;;;;;;;5052955;28;20495;-68
2021/08/02 03:32:09;;;;;;;4.87;2.30;;;;;;;;;;5053036;28;20411;-68
2021/08/02 03:34:35;;;;;;;3.03;2.20;;;;;;;;;;5052835;28;20565;-69
2021/08/02 03:37:04;;;;;;;4.03;2.50;;;;;;;;;;5053146;28;20403;-69
2021/08/02 03:39:31;;;;;;;3.43;2.30;;;;;;;;;;5052784;28;20462;-69
2021/08/02 03:41:57;;;;;;;2.93;2.30;;;;;;;;;;5052941;28;20410;-69
2021/08/02 03:44:24;;;;;;;9.00;2.33;;;;;;;;;;5053732;28;20840;-68
2021/08/02 03:46:50;;;;;;;4.83;2.47;;;;;;;;;;5054259;28;20404;-69
2021/08/02 03:49:16;;;;;;;4.10;2.13;;;;;;;;;;5054156;28;20510;-69
2021/08/02 03:51:45;;;;;;;4.60;2.40;;;;;;;;;;5053940;28;20410;-69
2021/08/02 03:54:12;;;;;;;5.00;2.30;;;;;;;;;;5053767;28;20415;-69
2021/08/02 03:56:38;;;;;;;3.37;2.60;;;;;;;;;;5053897;28;20800;-69
2021/08/02 03:59:04;;;;;;;3.57;2.20;;;;;;;;;;5053538;28;21043;-69
2021/08/02 04:01:30;;;;;;;3.47;2.20;;;;;;;;;;5053889;28;20415;-69
2021/08/02 04:03:56;;;;;;;3.83;2.77;;;;;;;;;;5053727;28;20780;-70
2021/08/02 04:09:25;;;;;;;3.07;2.00;;;;;;;;;;5053550;28;20410;-69
2021/08/02 04:11:51;;;;;;;2.80;2.40;;;;;;;;;;5053719;28;20411;-70
2021/08/02 04:14:17;;;;;;;5.20;2.13;;;;;;;;;;5053690;28;20912;-68
2021/08/02 04:16:43;;;;;;;4.27;2.30;;;;;;;;;;5054009;28;20437;-69
2021/08/02 04:19:09;;;;;;;2.50;2.20;;;;;;;;;;5053672;28;20470;-69
2021/08/02 04:24:39;;;;;;;2.30;2.10;;;;;;;;;;5053543;28;20425;-69
2021/08/02 04:27:05;;;;;;;2.93;1.90;;;;;;;;;;5053820;28;20423;-69
2021/08/02 04:29:31;;;;;;;4.80;2.77;;;;;;;;;;5053511;28;20403;-69
2021/08/02 04:31:57;;;;;;;4.10;2.40;;;;;;;;;;5053467;28;20498;-69
2021/08/02 04:34:23;;;;;;;4.93;2.20;;;;;;;;;;5053366;28;20462;-69
2021/08/02 04:36:49;;;;;;;2.80;2.20;;;;;;;;;;5053728;28;20411;-70
2021/08/02 04:39:15;;;;;;;3.60;2.83;;;;;;;;;;5053037;28;20569;-69
2021/08/02 04:41:41;;;;;;;4.53;2.17;;;;;;;;;;5053375;28;20862;-69
2021/08/02 04:44:07;;;;;;;7.30;2.40;;;;;;;;;;5053283;28;20407;-69
2021/08/02 04:46:33;;;;;;;2.70;2.00;;;;;;;;;;5053272;28;20433;-69
2021/08/02 04:48:59;;;;;;;2.67;2.30;;;;;;;;;;5053496;28;20494;-69
2021/08/02 04:54:29;;;;;;;6.00;2.20;;;;;;;;;;5052973;28;20422;-69
2021/08/02 04:56:54;;;;;;;2.40;2.00;;;;;;;;;;5053195;28;20399;-70
2021/08/02 04:59:20;;;;;;;9.30;2.50;;;;;;;;;;5052937;28;21023;-70
2021/08/02 05:01:46;;;;;;;2.80;2.17;;;;;;;;;;5053048;28;20411;-68
2021/08/02 05:04:12;;;;;;;4.53;2.60;;;;;;;;;;5053000;28;20419;-68
2021/08/02 05:09:42;;;;;;;2.50;2.30;;;;;;;;;;5052749;28;20424;-69
2021/08/02 05:12:08;;;;;;;7.77;2.70;;;;;;;;;;5052925;28;20420;-69
2021/08/02 05:14:34;;;;;;;4.50;2.73;;;;;;;;;;5052849;28;20411;-69
2021/08/02 05:17:00;;;;;;;1.70;1.60;;;;;;;;;;5052860;28;20470;-70
2021/08/02 05:19:26;;;;;;;2.60;2.07;;;;;;;;;;5052831;28;20470;-70
2021/08/02 05:24:55;;;;;;;4.70;2.40;;;;;;;;;;5052722;28;20959;-69
2021/08/02 05:27:21;;;;;;;2.40;2.20;;;;;;;;;;5052388;28;20419;-69
2021/08/02 05:29:47;;;;;;;1.97;1.87;;;;;;;;;;5052703;28;20411;-69
2021/08/02 05:32:13;;;;;;;2.67;2.20;;;;;;;;;;5052571;28;20419;-69
2021/08/02 05:34:41;;;;;;;2.23;2.00;;;;;;;;;;5054951;28;20470;-69
2021/08/02 05:40:10;;;;;;;2.47;2.27;;;;;;;;;;5056648;28;20453;-68
2021/08/02 05:42:37;;;;;;;4.00;2.80;;;;;;;;;;5055244;28;20476;-68
2021/08/02 05:45:04;;;;;;;4.20;2.53;;;;;;;;;;5055271;28;20590;-69
2021/08/02 05:47:30;;;;;;;2.60;2.03;;;;;;;;;;5056386;28;20415;-68
2021/08/02 05:49:56;;;;;;;2.17;1.97;;;;;;;;;;5056468;28;20456;-69
2021/08/02 05:52:22;;;;;;;2.23;2.03;;;;;;;;;;5056157;28;20438;-69
2021/08/02 05:54:48;;;;;;;3.00;2.53;;;;;;;;;;5056414;28;20423;-70
2021/08/02 05:57:18;;;;;;;4.30;1.97;;;;;;;;;;5056471;28;20415;-70
2021/08/02 05:59:44;;;;;;;4.47;2.40;;;;;;;;;;5056198;28;20471;-70
2021/08/02 06:02:10;;;;;;;3.63;2.47;;;;;;;;;;5054702;28;20430;-70
2021/08/02 06:04:36;;;;;;;5.00;2.37;;;;;;;;;;5056089;28;20438;-70
2021/08/02 06:10:06;;;;;;;2.57;2.37;;;;;;;;;;5055942;28;20556;-69
2021/08/02 06:12:32;;;;;;;3.13;2.10;;;;;;;;;;5055958;28;20488;-69
2021/08/02 06:14:58;;;;;;;5.73;2.70;;;;;;;;;;5056121;28;20897;-69
2021/08/02 06:17:24;;;;;;;2.93;2.07;;;;;;;;;;5055740;28;20741;-69
2021/08/02 06:19:50;;;;;;;5.53;2.67;;;;;;;;;;5055506;28;20453;-69
2021/08/02 06:25:19;;;;;;;6.63;2.67;;;;;;;;;;5055247;28;20403;-69
2021/08/02 06:27:45;;;;;;;2.80;2.60;;;;;;;;;;5055128;28;20881;-70
2021/08/02 06:30:11;;;;;;;2.73;2.50;;;;;;;;;;5055755;28;20772;-69
2021/08/02 06:32:37;;;;;;;2.40;2.20;;;;;;;;;;5055175;28;20410;-70
2021/08/02 06:35:04;;;;;;;4.93;2.20;;;;;;;;;;5055258;28;20501;-70
2021/08/02 06:37:30;;;;;;;5.13;2.70;;;;;;;;;;5054761;28;20415;-70
2021/08/02 06:39:56;;;;;;;14.77;3.50;;;;;;;;;;5055394;28;20502;-69
2021/08/02 06:42:22;;;;;;;10.80;2.77;;;;;;;;;;5055187;28;20549;-70
2021/08/02 06:44:48;;;;;;;8.43;3.23;;;;;;;;;;5055330;28;20481;-70
2021/08/02 06:47:14;;;;;;;4.67;2.30;;;;;;;;;;5055083;28;20722;-70
2021/08/02 06:49:40;;;;;;;2.30;2.10;;;;;;;;;;5055029;28;20419;-70
2021/08/02 06:55:09;;;;;;;2.67;2.30;;;;;;;;;;5055754;28;20480;-78
2021/08/02 06:57:36;;;;;;;2.47;2.20;;;;;;;;;;5053607;28;20414;-75
2021/08/02 07:00:03;;;;;;;8.37;2.40;;;;;;;;;;5053291;28;20469;-78
2021/08/02 07:02:29;;;;;;;3.10;2.40;;;;;;;;;;5053369;28;20462;-77
2021/08/02 07:04:55;;;;;;;3.83;2.27;;;;;;;;;;5055151;28;20431;-77
2021/08/02 07:10:25;;;;;;;2.10;1.90;;;;;;;;;;5053012;28;20415;-77
2021/08/02 07:12:51;;;;;;;4.50;2.03;;;;;;;;;;5053242;28;20411;-80
2021/08/02 07:15:17;;;;;;;1.87;1.70;;;;;;;;;;5055470;28;20457;-77
2021/08/02 07:17:43;;;;;;;3.20;2.10;;;;;;;;;;5061304;28;20423;-78
2021/08/02 07:20:09;;;;;;;1.80;1.70;;;;;;;;;;5059666;28;20462;-78
2021/08/02 07:25:38;;;;;;;2.03;1.83;;;;;;;;;;5059817;28;20442;-77
2021/08/02 07:28:04;;;;;;;3.57;1.80;;;;;;;;;;5053880;28;20443;-74
2021/08/02 07:30:30;;;;;;;4.33;1.63;;;;;;;;;;5057936;28;20411;-79
2021/08/02 07:32:56;;;;;;;2.70;2.50;;;;;;;;;;5056798;28;20419;-73
2021/08/02 07:35:22;;;;;;;4.40;2.20;;;;;;;;;;5056393;28;20521;-79
2021/08/02 07:40:52;;;;;;;2.13;1.93;;;;;;;;;;5053170;28;20669;-79
2021/08/02 07:43:18;;;;;;;2.93;2.40;;;;;;;;;;5052993;28;20411;-79
2021/08/02 07:45:44;;;;;;;2.83;2.00;;;;;;;;;;5053765;28;20414;-77
2021/08/02 07:48:10;;;;;;;2.30;1.80;;;;;;;;;;5054915;28;20407;-78
2021/08/02 07:50:36;;;;;;;1.93;1.80;;;;;;;;;;5054559;28;20517;-75
2021/08/02 07:53:02;;;;;;;2.20;1.43;;;;;;;;;;5054211;28;20423;-80
2021/08/02 07:55:28;;;;;;;2.83;1.77;;;;;;;;;;5055619;28;20866;-78
2021/08/02 07:57:55;;;;;;;4.77;1.60;;;;;;;;;;5051377;28;20497;-77
2021/08/02 08:00:21;;;;;;;2.53;1.90;;;;;;;;;;5053138;28;20415;-79
2021/08/02 08:02:47;;;;;;;2.07;1.77;;;;;;;;;;5052787;28;20870;-80
2021/08/02 08:05:14;;;;;;;1.90;1.67;;;;;;;;;;5052845;28;20407;-81
2021/08/02 08:10:43;;;;;;;2.87;1.50;;;;;;;;;;5052776;28;20422;-74
2021/08/02 08:13:09;;;;;;;4.10;1.50;;;;;;;;;;5052651;28;20407;-76
2021/08/02 08:15:35;;;;;;;2.10;1.57;;;;;;;;;;5052959;28;20482;-75
2021/08/02 08:18:01;;;;;;;2.30;1.50;;;;;;;;;;5054130;28;20466;-72
2021/08/02 08:20:27;;;;;;;1.90;1.70;;;;;;;;;;5055686;28;20422;-77
2021/08/02 08:25:57;;;;;;;1.80;1.33;;;;;;;;;;5054419;28;20604;-78
2021/08/02 08:28:23;;;;;;;1.40;1.30;;;;;;;;;;5052647;28;20427;-75
2021/08/02 08:30:49;;;;;;;2.80;1.67;;;;;;;;;;5052806;28;20427;-76
2021/08/02 08:33:15;;;;;;;1.57;1.43;;;;;;;;;;5052542;28;20874;-79
2021/08/02 08:35:41;;;;;;;1.63;1.53;;;;;;;;;;5052388;28;20478;-77
2021/08/02 08:41:13;;;;;;;2.23;1.67;;;;;;;;;;5052000;28;20505;-76
2021/08/02 08:43:39;;;;;;;1.87;1.70;;;;;;;;;;5052139;28;20450;-76
2021/08/02 08:46:05;;;;;;;2.40;1.20;;;;;;;;;;5052573;28;20501;-77
2021/08/02 08:48:31;;;;;;;2.63;1.80;;;;;;;;;;5056357;28;20427;-81
2021/08/02 08:50:57;;;;;;;1.10;1.00;;;;;;;;;;5052017;28;20909;-81
2021/08/02 08:53:23;;;;;;;3.10;1.70;;;;;;;;;;5052136;28;20437;-81
2021/08/02 08:55:49;;;;;;;2.00;1.20;;;;;;;;;;5052224;28;20780;-80
2021/08/02 08:58:15;;;;;;;1.60;1.50;;;;;;;;;;5052468;28;20458;-81
2021/08/02 09:00:41;;;;;;;1.70;1.60;;;;;;;;;;5052211;28;20427;-79
2021/08/02 09:03:14;;;;;;;1.97;1.87;;;;;;;;;;5052610;28;20408;-80
2021/08/02 09:05:40;;;;;;;2.23;1.60;;;;;;;;;;5053139;28;20411;-77
2021/08/02 09:11:16;;;;;;;1.37;1.23;;;;;;;;;;5051657;28;20422;-81
2021/08/02 09:13:43;;;;;;;1.67;1.50;;;;;;;;;;5051908;28;20399;-81
2021/08/02 09:16:22;;;;;;;2.33;1.80;;;;;;;;;;5058700;28;20427;-81
2021/08/02 09:18:57;;;;;;;1.27;1.17;;;;;;;;;;5053177;28;20473;-80
2021/08/02 09:21:24;;;;;;;1.83;1.60;;;;;;;;;;5051343;28;20431;-78
2021/08/02 09:23:53;;;;;;;3.03;1.80;;;;;;;;;;5051671;28;20556;-76
2021/08/02 09:26:30;;;;;;;1.83;1.30;;;;;;;;;;5050999;28;20426;-75
2021/08/02 09:28:56;;;;;;;3.53;1.53;;;;;;;;;;5051247;28;20513;-79
2021/08/02 09:31:31;;;;;;;4.83;1.50;;;;;;;;;;5052628;28;20416;-78
2021/08/02 09:34:00;;;;;;;4.60;1.90;;;;;;;;;;5051393;28;20817;-79
2021/08/02 09:36:36;;;;;;;5.53;1.83;;;;;;;;;;5051251;28;20481;-81
2021/08/02 09:39:06;;;;;;;3.83;1.33;;;;;;;;;;5051121;28;20470;-79
2021/08/02 09:41:32;;;;;;;1.93;1.80;;;;;;;;;;5051083;28;20481;-79
2021/08/02 09:43:58;;;;;;;2.40;1.67;;;;;;;;;;5051637;28;20881;-80
2021/08/02 09:46:24;;;;;;;2.40;2.13;;;;;;;;;;5050670;28;20947;-80
2021/08/02 09:48:50;;;;;;;3.00;2.57;;;;;;;;;;5051038;28;20978;-79
2021/08/02 09:51:20;;;;;;;1.50;1.40;;;;;;;;;;5051920;28;20415;-78
2021/08/02 09:53:47;;;;;;;1.73;1.47;;;;;;;;;;5050905;28;20419;-76
2021/08/02 09:56:14;;;;;;;1.83;1.50;;;;;;;;;;5050977;28;20411;-81
2021/08/02 09:58:41;;;;;;;2.30;1.13;;;;;;;;;;5051559;28;20471;-80
2021/08/02 10:01:08;;;;;;;1.80;1.70;;;;;;;;;;5050885;28;20419;-81
2021/08/02 10:03:34;;;;;;;1.73;1.63;;;;;;;;;;5051203;28;20849;-81
2021/08/02 10:06:01;;;;;;;1.37;1.27;;;;;;;;;;5051599;28;20415;-80
2021/08/02 10:11:32;;;;;;;2.07;1.70;;;;;;;;;;5051818;28;20418;-81
2021/08/02 10:13:58;;;;;;;2.00;1.53;;;;;;;;;;5051347;28;20421;-82
2021/08/02 10:16:27;;;;;;;1.70;1.60;;;;;;;;;;5052913;28;20415;-82
2021/08/02 10:19:00;;;;;;;1.53;1.40;;;;;;;;;;5051219;28;20998;-83
2021/08/02 10:21:36;;;;;;;2.03;1.47;;;;;;;;;;5054577;28;20765;-81
2021/08/02 10:24:09;;;;;;;1.80;1.70;;;;;;;;;;5055648;28;20502;-80
2021/08/02 10:26:35;;;;;;;1.63;1.50;;;;;;;;;;5056874;28;20466;-82
2021/08/02 10:29:04;;;;;;;1.43;1.20;;;;;;;;;;5054946;28;20809;-82
2021/08/02 10:31:41;;;;;;;2.40;1.53;;;;;;;;;;5054773;28;20423;-82
2021/08/02 10:34:20;;;;;;;1.43;1.33;;;;;;;;;;5055546;28;20419;-80
2021/08/02 10:37:06;;;;;;;2.47;1.80;;;;;;;;;;5055594;28;20518;-80
2021/08/02 10:39:33;;;;;;;2.43;1.43;;;;;;;;;;5055404;28;20472;-83
2021/08/02 10:42:05;;;;;;;2.57;1.20;;;;;;;;;;5054101;28;20433;-82
2021/08/02 10:44:31;;;;;;;1.30;1.20;;;;;;;;;;5055555;28;20419;-82
2021/08/02 10:47:05;;;;;;;1.60;1.50;;;;;;;;;;5055753;28;20411;-81
2021/08/02 10:49:31;;;;;;;2.73;2.10;;;;;;;;;;5055767;28;20457;-82
2021/08/02 10:51:57;;;;;;;2.20;1.57;;;;;;;;;;5055328;28;20441;-82
2021/08/02 10:54:24;;;;;;;1.90;1.30;;;;;;;;;;5055703;28;20423;-82
2021/08/02 10:56:52;;;;;;;2.07;1.03;;;;;;;;;;5054608;28;20423;-80
2021/08/02 10:59:21;;;;;;;2.23;1.20;;;;;;;;;;5052767;28;20975;-81
2021/08/02 11:01:51;;;;;;;2.80;1.50;;;;;;;;;;5053444;28;20783;-80
2021/08/02 11:04:18;;;;;;;1.33;1.23;;;;;;;;;;5053164;28;20799;-81
2021/08/02 11:06:46;;;;;;;1.67;1.40;;;;;;;;;;5053330;28;20421;-83
2021/08/02 11:12:16;;;;;;;3.07;1.77;;;;;;;;;;5053114;28;20422;-83
2021/08/02 11:14:45;;;;;;;1.97;1.53;;;;;;;;;;5053376;28;20744;-82
2021/08/02 11:17:18;;;;;;;3.60;1.93;;;;;;;;;;5053043;28;20471;-81
2021/08/02 11:19:44;;;;;;;1.80;1.30;;;;;;;;;;5052873;28;20466;-81
2021/08/02 11:22:11;;;;;;;0.80;0.80;;;;;;;;;;5052840;28;20407;-82
2021/08/02 11:24:38;;;;;;;1.63;1.00;;;;;;;;;;5052673;28;20423;-83
2021/08/02 11:27:06;;;;;;;1.40;1.30;;;;;;;;;;5051728;28;20433;-81
2021/08/02 11:29:36;;;;;;;0.70;0.70;;;;;;;;;;5052762;28;20795;-83
2021/08/02 11:32:12;;;;;;;3.33;1.07;;;;;;;;;;5051935;28;20419;-74
2021/08/02 11:34:39;;;;;;;2.53;1.30;;;;;;;;;;5052547;28;20829;-72
2021/08/02 11:37:06;;;;;;;1.83;1.10;;;;;;;;;;5052459;28;20419;-73
2021/08/02 11:39:33;;;;;;;5.03;1.20;;;;;;;;;;5052420;28;20485;-72
2021/08/02 11:42:03;;;;;;;1.53;1.43;;;;;;;;;;5052962;28;20418;-70
2021/08/02 11:44:30;;;;;;;1.67;0.83;;;;;;;;;;5053254;28;20403;-72
2021/08/02 11:46:56;;;;;;;1.23;1.13;;;;;;;;;;5052679;28;20951;-71
2021/08/02 11:49:23;;;;;;;1.40;1.30;;;;;;;;;;5052636;28;20881;-71
2021/08/02 11:51:49;;;;;;;1.40;1.30;;;;;;;;;;5052671;28;20720;-70
2021/08/02 11:57:19;;;;;;;2.77;1.70;;;;;;;;;;5052295;28;20413;-72
2021/08/02 11:59:59;;;;;;;3.77;1.70;;;;;;;;;;5052677;28;20474;-72
2021/08/02 12:02:31;;;;;;;1.47;1.37;;;;;;;;;;5052305;28;20506;-70
2021/08/02 12:04:58;;;;;;;2.73;1.70;;;;;;;;;;5052468;28;20503;-72
2021/08/02 12:07:27;;;;;;;1.50;1.40;;;;;;;;;;5051809;28;20858;-71
2021/08/02 12:09:53;;;;;;;3.63;2.17;;;;;;;;;;5052064;28;20445;-73
2021/08/02 12:12:23;;;;;;;1.90;1.60;;;;;;;;;;5052207;28;20420;-71
2021/08/02 12:14:50;;;;;;;1.67;1.57;;;;;;;;;;5052382;28;20603;-71
2021/08/02 12:17:18;;;;;;;1.70;1.30;;;;;;;;;;5050848;28;20553;-70
2021/08/02 12:19:52;;;;;;;1.60;1.50;;;;;;;;;;5051904;28;20462;-72
2021/08/02 12:22:19;;;;;;;1.47;1.37;;;;;;;;;;5051708;28;20418;-72
2021/08/02 12:24:59;;;;;;;1.83;1.50;;;;;;;;;;5051968;28;20909;-72
2021/08/02 12:27:26;;;;;;;1.77;1.67;;;;;;;;;;5051678;28;20506;-71
2021/08/02 12:29:56;;;;;;;1.97;1.30;;;;;;;;;;5051969;28;20422;-74
2021/08/02 12:32:33;;;;;;;1.70;1.60;;;;;;;;;;5051960;28;20469;-71
2021/08/02 12:34:59;;;;;;;3.53;1.10;;;;;;;;;;5051519;28;20469;-73
2021/08/02 12:37:25;;;;;;;1.43;1.20;;;;;;;;;;5051636;28;20418;-70
2021/08/02 12:39:51;;;;;;;0.83;0.83;;;;;;;;;;5052002;28;20561;-72
2021/08/02 12:42:17;;;;;;;1.77;1.10;;;;;;;;;;5051291;28;20423;-72
2021/08/02 12:44:43;;;;;;;1.40;1.20;;;;;;;;;;5051889;28;20423;-72
2021/08/02 12:47:09;;;;;;;1.80;1.07;;;;;;;;;;5051751;28;20429;-71
2021/08/02 12:49:35;;;;;;;1.93;1.10;;;;;;;;;;5051394;28;20449;-72
2021/08/02 12:52:01;;;;;;;2.10;1.20;;;;;;;;;;5050887;28;21120;-71
2021/08/02 12:57:31;;;;;;;1.30;1.20;;;;;;;;;;5048452;28;20912;-71
2021/08/02 12:59:58;;;;;;;1.67;1.20;;;;;;;;;;5048265;28;20972;-71
2021/08/02 13:02:25;;;;;;;1.20;1.07;;;;;;;;;;5048728;28;20419;-72
2021/08/02 13:04:51;;;;;;;3.63;2.67;;;;;;;;;;5048823;28;20419;-72
2021/08/02 13:07:17;;;;;;;1.53;1.17;;;;;;;;;;5049470;28;20415;-71
2021/08/02 13:12:46;;;;;;;2.33;1.20;;;;;;;;;;5048869;28;20580;-71
2021/08/02 13:15:12;;;;;;;2.50;1.60;;;;;;;;;;5048927;28;20498;-72
2021/08/02 13:17:39;;;;;;;1.77;1.67;;;;;;;;;;5048355;28;20430;-71
2021/08/02 13:20:05;;;;;;;2.67;1.50;;;;;;;;;;5048762;28;20423;-72
2021/08/02 13:22:52;;;;;;;1.97;1.10;;;;;;;;;;5048694;28;20435;-72
2021/08/02 13:28:03;;;;;;;1.20;1.10;;;;;;;;;;5049942;28;20809;-71
2021/08/02 13:30:29;;;;;;;1.80;1.43;;;;;;;;;;5050820;28;20427;-73
2021/08/02 13:32:56;;;;;;;1.50;1.10;;;;;;;;;;5051264;28;20430;-72
2021/08/02 13:35:22;;;;;;;1.70;1.30;;;;;;;;;;5050978;28;20478;-71
2021/08/02 13:37:48;;;;;;;2.30;1.10;;;;;;;;;;5050510;28;20427;-72
2021/08/02 13:40:14;;;;;;;1.73;1.20;;;;;;;;;;5050968;28;20454;-72
2021/08/02 13:42:40;;;;;;;3.27;0.77;;;;;;;;;;5050584;28;20419;-72
2021/08/02 13:45:06;;;;;;;1.37;1.27;;;;;;;;;;5050949;28;20423;-72
2021/08/02 13:47:32;;;;;;;1.60;1.10;;;;;;;;;;5050761;28;20820;-73
2021/08/02 13:49:59;;;;;;;1.13;1.03;;;;;;;;;;5050718;28;20411;-72
2021/08/02 13:52:25;;;;;;;1.00;0.90;;;;;;;;;;5049028;28;20426;-72
2021/08/02 13:57:54;;;;;;;1.30;1.20;;;;;;;;;;5054096;28;20513;-71
2021/08/02 14:00:20;;;;;;;1.90;1.60;;;;;;;;;;5053234;28;20505;-72
2021/08/02 14:02:46;;;;;;;1.63;1.53;;;;;;;;;;5053537;28;20501;-77
2021/08/02 14:05:12;;;;;;;2.10;1.70;;;;;;;;;;5053904;28;20829;-72
2021/08/02 14:07:39;;;;;;;1.27;1.17;;;;;;;;;;5054373;28;20468;-80
2021/08/02 14:13:12;;;;;;;1.60;1.50;;;;;;;;;;5054298;28;20430;-79
2021/08/02 14:15:43;;;;;;;1.37;1.27;;;;;;;;;;5054483;28;20905;-81
2021/08/02 14:18:09;;;;;;;1.83;1.40;;;;;;;;;;5054208;28;20504;-80
2021/08/02 14:20:36;;;;;;;2.00;1.73;;;;;;;;;;5054230;28;20433;-74
2021/08/02 14:23:03;;;;;;;1.43;1.33;;;;;;;;;;5054073;28;20514;-74
2021/08/02 14:25:29;;;;;;;2.33;1.40;;;;;;;;;;5054385;28;20766;-75
2021/08/02 14:27:55;;;;;;;1.40;1.30;;;;;;;;;;5053198;28;20409;-74
2021/08/02 14:30:21;;;;;;;2.03;1.80;;;;;;;;;;5053085;28;20415;-78
2021/08/02 14:32:47;;;;;;;1.60;1.37;;;;;;;;;;5053203;28;20480;-76
2021/08/02 14:35:13;;;;;;;2.07;1.70;;;;;;;;;;5052671;28;20876;-74
2021/08/02 14:37:42;;;;;;;2.77;1.80;;;;;;;;;;5053549;28;20937;-76
2021/08/02 14:43:15;;;;;;;2.43;1.87;;;;;;;;;;5053699;28;20480;-79
2021/08/02 14:45:42;;;;;;;3.33;2.40;;;;;;;;;;5053919;28;20419;-75
2021/08/02 14:48:08;;;;;;;1.77;1.53;;;;;;;;;;5053697;28;20430;-75
2021/08/02 14:50:37;;;;;;;3.83;1.50;;;;;;;;;;5053707;28;20522;-79
2021/08/02 14:53:03;;;;;;;2.07;1.80;;;;;;;;;;5053262;28;20423;-79
2021/08/02 14:55:29;;;;;;;3.10;2.20;;;;;;;;;;5052386;28;20453;-80
2021/08/02 14:57:55;;;;;;;3.83;1.10;;;;;;;;;;5051824;28;20517;-78
2021/08/02 15:00:21;;;;;;;2.00;1.70;;;;;;;;;;5052681;28;20427;-79
2021/08/02 15:02:47;;;;;;;3.80;1.37;;;;;;;;;;5053697;28;20785;-78
2021/08/02 15:05:14;;;;;;;1.70;1.60;;;;;;;;;;5053507;28;20510;-79
2021/08/02 15:07:44;;;;;;;1.90;1.53;;;;;;;;;;5053046;28;20766;-77
2021/08/02 15:13:13;;;;;;;2.13;1.80;;;;;;;;;;5052781;28;20461;-78
2021/08/02 15:15:40;;;;;;;1.83;1.63;;;;;;;;;;5053147;28;20447;-78
2021/08/02 15:18:08;;;;;;;3.87;1.30;;;;;;;;;;5053086;28;20458;-81
2021/08/02 15:20:34;;;;;;;4.93;1.50;;;;;;;;;;5053039;28;20905;-78
2021/08/02 15:23:06;;;;;;;2.13;1.57;;;;;;;;;;5052487;28;20422;-77
2021/08/02 15:28:37;;;;;;;3.00;1.40;;;;;;;;;;5050735;28;20831;-78
2021/08/02 15:31:04;;;;;;;3.70;1.60;;;;;;;;;;5051650;28;20658;-78
2021/08/02 15:33:30;;;;;;;2.03;1.20;;;;;;;;;;5051544;28;20438;-79
2021/08/02 15:35:57;;;;;;;2.67;1.00;;;;;;;;;;5051393;28;20471;-79
2021/08/02 15:38:25;;;;;;;1.23;1.13;;;;;;;;;;5050640;28;20481;-77
2021/08/02 15:40:51;;;;;;;1.30;1.20;;;;;;;;;;5050875;28;20502;-77
2021/08/02 15:43:22;;;;;;;1.00;0.90;;;;;;;;;;5050816;28;20423;-78
2021/08/02 15:45:48;;;;;;;1.33;1.23;;;;;;;;;;5050794;28;20437;-78
2021/08/02 15:48:14;;;;;;;1.30;1.07;;;;;;;;;;5051309;28;20415;-77
2021/08/02 15:50:40;;;;;;;1.10;0.83;;;;;;;;;;5050007;28;20415;-74
2021/08/02 15:53:12;;;;;;;0.97;0.63;;;;;;;;;;5051014;28;20419;-74
2021/08/02 15:58:43;;;;;;;0.87;0.87;;;;;;;;;;5050933;28;20474;-74
2021/08/02 16:01:13;;;;;;;1.30;0.80;;;;;;;;;;5051218;28;20424;-73
2021/08/02 16:03:46;;;;;;;1.53;1.20;;;;;;;;;;5050998;28;20522;-74
2021/08/02 16:06:12;;;;;;;1.00;0.90;;;;;;;;;;5050969;28;20477;-74
2021/08/02 16:08:41;;;;;;;1.40;1.27;;;;;;;;;;5050328;28;20509;-75
2021/08/02 16:11:08;;;;;;;1.37;0.70;;;;;;;;;;5050455;28;20423;-74
2021/08/02 16:13:35;;;;;;;0.90;0.90;;;;;;;;;;5048538;28;20530;-74
2021/08/02 16:16:01;;;;;;;2.13;1.10;;;;;;;;;;5048612;28;20838;-75
2021/08/02 16:18:27;;;;;;;2.47;1.30;;;;;;;;;;5049490;28;20455;-75
2021/08/02 16:20:53;;;;;;;0.77;0.77;;;;;;;;;;5051421;28;20419;-75
2021/08/02 16:23:20;;;;;;;0.93;0.80;;;;;;;;;;5051848;28;20407;-74